Time;durP1;ratioP1;P1;durP2;ratioP2;P2;SDS_P1;SDS_P2;PMS_P1;PMS_P2;Temp;Humidity;BMP_temperature;BMP_pressure;BME280_temperature;BME280_humidity;BME280_pressure;Samples;Min_cycle;Max_cycle;Signal;HPM_P1;HPM_P2
2023/04/20 00:01:16;;;;;;;6.57;2.93;;;11.30;83.90;;;;;;4943988;29;20366;-38
2023/04/20 00:03:43;;;;;;;3.77;3.00;;;11.30;83.90;;;;;;4945267;28;20219;-38
2023/04/20 00:06:11;;;;;;;7.07;3.20;;;11.20;83.70;;;;;;4971981;28;20223;-38
2023/04/20 00:08:40;;;;;;;4.13;3.20;;;11.20;83.90;;;;;;4943816;28;20207;-38
2023/04/20 00:11:07;;;;;;;4.97;2.83;;;11.20;83.70;;;;;;4976006;28;20243;-38
2023/04/20 00:13:34;;;;;;;7.10;3.37;;;11.10;83.70;;;;;;4943374;29;20749;-38
2023/04/20 00:16:02;;;;;;;5.33;3.27;;;11.10;83.50;;;;;;4944388;28;20261;-38
2023/04/20 00:18:31;;;;;;;5.37;3.00;;;11.10;83.80;;;;;;4975744;28;20326;-38
2023/04/20 00:20:59;;;;;;;3.43;2.90;;;11.10;83.80;;;;;;4944493;28;20739;-38
2023/04/20 00:23:30;;;;;;;6.70;3.13;;;11.00;83.30;;;;;;4975257;28;20724;-38
2023/04/20 00:25:57;;;;;;;6.57;3.10;;;11.00;83.70;;;;;;4943255;28;20210;-38
2023/04/20 00:28:30;;;;;;;8.37;3.00;;;10.90;83.70;;;;;;4944336;28;20612;-38
2023/04/20 00:30:57;;;;;;;5.37;3.23;;;10.90;83.50;;;;;;4944129;28;20311;-38
2023/04/20 00:33:24;;;;;;;5.10;2.93;;;10.90;83.70;;;;;;4943528;28;20693;-38
2023/04/20 00:35:55;;;;;;;3.73;2.70;;;10.90;83.60;;;;;;4942642;28;20279;-38
2023/04/20 00:38:24;;;;;;;6.47;3.20;;;10.80;83.50;;;;;;4945009;28;20266;-38
2023/04/20 00:40:54;;;;;;;4.20;2.87;;;10.80;83.70;;;;;;4940967;29;20298;-38
2023/04/20 00:43:21;;;;;;;3.73;2.90;;;10.80;83.70;;;;;;4944497;28;20207;-38
2023/04/20 00:45:50;;;;;;;6.60;3.00;;;10.90;84.50;;;;;;4943628;28;20306;-33
2023/04/20 00:48:18;;;;;;;4.90;2.93;;;10.80;83.60;;;;;;4944833;28;20203;-32
2023/04/20 00:50:49;;;;;;;5.03;2.90;;;10.80;83.50;;;;;;4958540;28;20211;-32
2023/04/20 00:53:17;;;;;;;6.57;2.83;;;10.80;83.60;;;;;;4972506;28;20226;-33
2023/04/20 00:55:45;;;;;;;5.83;3.10;;;10.80;83.70;;;;;;4944147;28;20315;-32
2023/04/20 00:58:14;;;;;;;6.37;3.30;;;10.80;83.80;;;;;;4944393;28;20678;-32
2023/04/20 01:00:42;;;;;;;6.17;2.90;;;10.70;83.40;;;;;;4961593;28;20301;-33
2023/04/20 01:03:12;;;;;;;5.17;3.13;;;10.70;83.20;;;;;;4990536;28;20317;-33
2023/04/20 01:05:40;;;;;;;3.90;2.90;;;10.70;83.70;;;;;;4944161;28;20211;-33
2023/04/20 01:08:07;;;;;;;4.70;2.83;;;10.70;83.60;;;;;;4942576;28;20230;-33
2023/04/20 01:10:36;;;;;;;4.07;3.10;;;10.60;83.60;;;;;;4956212;28;20270;-33
2023/04/20 01:13:06;;;;;;;5.03;2.67;;;10.60;83.60;;;;;;4945289;28;20266;-33
2023/04/20 01:15:37;;;;;;;4.80;3.23;;;10.60;83.50;;;;;;4943147;28;20785;-33
2023/04/20 01:18:08;;;;;;;5.63;3.30;;;10.60;83.30;;;;;;4944940;28;20235;-33
2023/04/20 01:20:37;;;;;;;4.50;3.13;;;10.50;83.20;;;;;;4952781;28;20556;-33
2023/04/20 01:23:07;;;;;;;4.20;2.77;;;10.50;84.00;;;;;;4957789;28;20220;-33
2023/04/20 01:25:36;;;;;;;4.53;3.33;;;10.50;83.30;;;;;;4973770;28;20303;-33
2023/04/20 01:28:06;;;;;;;5.67;3.23;;;10.40;83.30;;;;;;4941979;28;20215;-33
2023/04/20 01:30:33;;;;;;;4.63;3.13;;;10.40;83.10;;;;;;4940552;29;20318;-33
2023/04/20 01:33:03;;;;;;;5.20;3.30;;;10.40;83.20;;;;;;4942707;28;20247;-33
2023/04/20 01:35:30;;;;;;;4.43;2.73;;;10.40;83.10;;;;;;4942753;28;20332;-33
2023/04/20 01:37:58;;;;;;;4.67;3.00;;;10.40;83.20;;;;;;4943554;28;20628;-33
2023/04/20 01:40:27;;;;;;;5.03;3.10;;;10.30;83.10;;;;;;4974403;28;20724;-33
2023/04/20 01:42:54;;;;;;;5.77;3.37;;;10.30;83.10;;;;;;4943924;28;20208;-33
2023/04/20 01:45:24;;;;;;;5.70;3.20;;;10.30;83.00;;;;;;4944957;29;20231;-33
2023/04/20 01:47:51;;;;;;;5.23;3.27;;;10.20;82.60;;;;;;4946952;28;20226;-33
2023/04/20 01:50:18;;;;;;;5.93;3.00;;;10.10;82.80;;;;;;4947855;28;20590;-33
2023/04/20 01:52:45;;;;;;;4.43;3.10;;;10.10;82.90;;;;;;4947249;28;20722;-33
2023/04/20 01:55:15;;;;;;;6.43;3.33;;;10.00;82.70;;;;;;4942704;28;20219;-33
2023/04/20 01:57:47;;;;;;;6.23;3.03;;;10.10;82.90;;;;;;4945695;28;20227;-33
2023/04/20 02:00:18;;;;;;;4.17;3.20;;;10.00;82.60;;;;;;4946459;28;20334;-33
2023/04/20 02:02:45;;;;;;;12.10;3.17;;;10.00;82.60;;;;;;4945290;28;20229;-32
2023/04/20 02:05:12;;;;;;;6.43;3.40;;;10.00;82.70;;;;;;4946262;29;20791;-33
2023/04/20 02:07:40;;;;;;;6.50;3.57;;;10.00;82.70;;;;;;4947068;28;20713;-33
2023/04/20 02:10:07;;;;;;;4.33;2.67;;;10.00;82.70;;;;;;4968498;28;20719;-33
2023/04/20 02:12:37;;;;;;;3.97;3.10;;;9.90;83.80;;;;;;4947026;28;20246;-33
2023/04/20 02:15:06;;;;;;;6.67;2.97;;;9.90;83.70;;;;;;4946527;28;20229;-33
2023/04/20 02:17:33;;;;;;;5.17;2.87;;;9.90;83.80;;;;;;4946982;29;21126;-32
2023/04/20 02:20:00;;;;;;;5.73;3.23;;;9.90;83.80;;;;;;4948073;28;20216;-33
2023/04/20 02:22:37;;;;;;;6.60;3.20;;;9.80;83.70;;;;;;4947396;28;20219;-33
2023/04/20 02:25:05;;;;;;;3.50;2.73;;;9.90;83.80;;;;;;4944701;28;20246;-33
2023/04/20 02:27:37;;;;;;;3.87;3.10;;;9.80;83.80;;;;;;4946616;29;20303;-33
2023/04/20 02:30:09;;;;;;;3.30;2.60;;;9.80;83.80;;;;;;4944252;29;20210;-33
2023/04/20 02:32:39;;;;;;;3.87;3.20;;;9.80;84.00;;;;;;4946644;28;20294;-33
2023/04/20 02:35:09;;;;;;;5.30;2.80;;;9.80;84.00;;;;;;4947100;28;20286;-33
2023/04/20 02:37:38;;;;;;;6.87;2.63;;;9.80;84.00;;;;;;4935015;29;20773;-33
2023/04/20 02:40:06;;;;;;;4.70;3.00;;;9.80;84.20;;;;;;4958560;28;20441;-33
2023/04/20 02:42:33;;;;;;;6.57;2.80;;;9.70;84.10;;;;;;4946834;28;20955;-33
2023/04/20 02:45:03;;;;;;;4.13;2.90;;;9.70;84.10;;;;;;4974832;28;20677;-33
2023/04/20 02:47:30;;;;;;;3.53;2.83;;;9.60;83.80;;;;;;4976575;28;20219;-33
2023/04/20 02:50:04;;;;;;;4.30;3.00;;;9.60;83.90;;;;;;4947168;29;20665;-39
2023/04/20 02:52:33;;;;;;;5.27;3.07;;;9.60;83.90;;;;;;4946297;28;20681;-38
2023/04/20 02:55:03;;;;;;;4.53;3.03;;;9.60;83.90;;;;;;4947588;28;20286;-38
2023/04/20 02:57:32;;;;;;;6.27;3.07;;;9.60;83.80;;;;;;4996581;28;20231;-38
2023/04/20 03:00:02;;;;;;;5.27;3.00;;;9.50;83.70;;;;;;4987913;28;20674;-38
2023/04/20 03:02:31;;;;;;;5.03;3.00;;;9.50;83.70;;;;;;4944830;29;20587;-38
2023/04/20 03:05:01;;;;;;;5.70;2.73;;;9.50;83.70;;;;;;4946123;28;20211;-38
2023/04/20 03:07:33;;;;;;;5.47;3.00;;;9.50;83.70;;;;;;4977033;28;20224;-38
2023/04/20 03:10:03;;;;;;;4.63;2.80;;;9.40;83.70;;;;;;4948266;28;20301;-38
2023/04/20 03:12:30;;;;;;;6.87;3.33;;;9.40;83.70;;;;;;4944632;28;20781;-38
2023/04/20 03:15:05;;;;;;;6.73;3.20;;;9.30;83.60;;;;;;4946456;28;20211;-38
2023/04/20 03:17:36;;;;;;;4.30;2.93;;;9.30;83.70;;;;;;4957980;28;20764;-38
2023/04/20 03:20:12;;;;;;;6.50;2.80;;;9.20;83.50;;;;;;4945852;29;20546;-38
2023/04/20 03:22:41;;;;;;;5.47;3.50;;;9.20;83.60;;;;;;4945175;28;20215;-38
2023/04/20 03:25:11;;;;;;;4.97;3.10;;;9.20;83.60;;;;;;4976071;28;20245;-38
2023/04/20 03:27:38;;;;;;;6.30;3.03;;;9.10;83.60;;;;;;4944253;28;20294;-38
2023/04/20 03:30:06;;;;;;;4.43;2.83;;;9.10;83.50;;;;;;4958483;28;20618;-38
2023/04/20 03:32:37;;;;;;;4.57;2.97;;;9.10;83.50;;;;;;4945867;28;20211;-38
2023/04/20 03:35:05;;;;;;;5.10;2.63;;;9.00;83.50;;;;;;4946103;28;20226;-38
2023/04/20 03:37:36;;;;;;;4.27;2.87;;;9.00;83.50;;;;;;4960862;28;20224;-38
2023/04/20 03:40:11;;;;;;;4.50;2.90;;;9.00;83.40;;;;;;4944934;28;20219;-37
2023/04/20 03:42:43;;;;;;;6.47;3.00;;;9.00;83.40;;;;;;4945534;28;20357;-38
2023/04/20 03:45:11;;;;;;;4.00;2.60;;;9.00;83.50;;;;;;4958524;28;20303;-38
2023/04/20 03:47:38;;;;;;;6.60;2.70;;;9.00;83.60;;;;;;4977162;28;20283;-38
2023/04/20 03:50:05;;;;;;;4.03;2.73;;;8.90;83.50;;;;;;4945283;28;20628;-38
2023/04/20 03:52:35;;;;;;;3.40;2.80;;;8.90;83.60;;;;;;4944161;28;20657;-38
2023/04/20 03:55:02;;;;;;;6.67;2.97;;;8.90;83.50;;;;;;4975352;28;20204;-38
2023/04/20 03:57:29;;;;;;;3.43;2.70;;;8.90;83.70;;;;;;4953840;28;20610;-38
2023/04/20 03:59:59;;;;;;;7.73;3.20;;;8.90;83.70;;;;;;4943840;29;20339;-39
2023/04/20 04:02:34;;;;;;;6.10;3.07;;;8.90;83.80;;;;;;4942684;29;20344;-38
2023/04/20 04:05:07;;;;;;;4.03;2.87;;;8.90;83.90;;;;;;4945988;28;20219;-38
2023/04/20 04:07:39;;;;;;;3.97;2.80;;;8.90;84.00;;;;;;4943869;28;20228;-38
2023/04/20 04:10:09;;;;;;;9.10;3.20;;;8.90;84.00;;;;;;4974641;28;20574;-38
2023/04/20 04:12:38;;;;;;;10.23;2.93;;;8.80;84.00;;;;;;4944597;28;20239;-38
2023/04/20 04:15:08;;;;;;;4.33;2.60;;;8.90;84.00;;;;;;4954812;28;20208;-38
2023/04/20 04:17:36;;;;;;;3.73;2.63;;;8.80;83.80;;;;;;4943978;29;22447;-38
2023/04/20 04:20:09;;;;;;;5.63;2.67;;;8.80;83.90;;;;;;4945113;28;20204;-38
2023/04/20 04:22:39;;;;;;;3.73;2.77;;;8.80;83.80;;;;;;4943863;28;20311;-38
2023/04/20 04:25:09;;;;;;;4.90;2.83;;;8.80;83.80;;;;;;4925657;29;20461;-38
2023/04/20 04:27:38;;;;;;;5.97;3.00;;;8.80;83.70;;;;;;4940361;28;20452;-38
2023/04/20 04:30:09;;;;;;;5.43;2.73;;;8.70;83.70;;;;;;4968484;28;20225;-38
2023/04/20 04:32:43;;;;;;;4.00;2.40;;;8.70;83.70;;;;;;4944074;28;20610;-37
2023/04/20 04:35:13;;;;;;;5.03;2.73;;;8.70;83.70;;;;;;4941735;29;20239;-38
2023/04/20 04:37:42;;;;;;;5.80;2.80;;;8.70;83.70;;;;;;4942461;28;20759;-38
2023/04/20 04:40:15;;;;;;;4.80;2.83;;;8.60;83.60;;;;;;4974819;28;20226;-38
2023/04/20 04:42:44;;;;;;;4.13;2.80;;;8.60;83.60;;;;;;4944384;28;20210;-38
2023/04/20 04:45:12;;;;;;;7.00;2.93;;;8.60;83.60;;;;;;4935386;29;20694;-38
2023/04/20 04:47:42;;;;;;;5.73;3.00;;;8.60;83.80;;;;;;4942372;28;20215;-38
2023/04/20 04:50:10;;;;;;;3.50;2.73;;;8.60;83.90;;;;;;4941115;28;20208;-38
2023/04/20 04:52:42;;;;;;;7.00;2.63;;;8.60;83.90;;;;;;4943544;28;20863;-38
2023/04/20 04:55:16;;;;;;;5.77;2.80;;;8.50;84.90;;;;;;4957959;28;20638;-37
2023/04/20 04:57:45;;;;;;;7.20;2.77;;;8.50;84.30;;;;;;4946816;28;20224;-38
2023/04/20 05:00:18;;;;;;;4.43;2.70;;;8.50;84.10;;;;;;4977315;28;20247;-37
2023/04/20 05:02:51;;;;;;;4.47;2.83;;;8.50;84.20;;;;;;4951049;28;20283;-38
2023/04/20 05:05:22;;;;;;;3.57;2.57;;;8.50;84.10;;;;;;4957422;28;20677;-37
2023/04/20 05:07:49;;;;;;;4.80;2.53;;;8.50;84.30;;;;;;4943164;28;20784;-37
2023/04/20 05:10:19;;;;;;;4.00;2.57;;;8.60;84.50;;;;;;4941261;29;20298;-37
2023/04/20 05:12:47;;;;;;;5.13;2.87;;;8.60;84.50;;;;;;4944056;29;20223;-38
2023/04/20 05:15:17;;;;;;;9.93;3.20;;;8.60;84.80;;;;;;4943093;28;20216;-38
2023/04/20 05:17:44;;;;;;;4.50;3.10;;;8.60;84.80;;;;;;4948487;28;20223;-38
2023/04/20 05:20:11;;;;;;;3.90;2.47;;;8.60;84.80;;;;;;4943340;29;20430;-38
2023/04/20 05:22:38;;;;;;;5.37;3.07;;;8.60;84.80;;;;;;4943431;28;20219;-32
2023/04/20 05:25:06;;;;;;;5.70;3.07;;;8.70;85.20;;;;;;4941042;28;20323;-32
2023/04/20 05:27:39;;;;;;;6.77;3.00;;;8.70;85.10;;;;;;4941074;28;20318;-32
2023/04/20 05:30:14;;;;;;;4.33;2.80;;;8.70;85.20;;;;;;4969584;28;20231;-32
2023/04/20 05:32:48;;;;;;;8.87;2.73;;;8.70;85.20;;;;;;4938833;29;20302;-32
2023/04/20 05:35:21;;;;;;;5.13;2.70;;;8.70;85.60;;;;;;4943598;29;20652;-33
2023/04/20 05:37:48;;;;;;;4.57;2.90;;;8.70;86.10;;;;;;4942775;28;20628;-32
2023/04/20 05:40:18;;;;;;;4.47;2.80;;;8.70;86.00;;;;;;4943841;28;20625;-32
2023/04/20 05:42:48;;;;;;;5.43;3.20;;;8.70;85.80;;;;;;4942134;28;20306;-32
2023/04/20 05:45:20;;;;;;;4.87;2.93;;;8.80;86.00;;;;;;4970297;28;20212;-32
2023/04/20 05:47:56;;;;;;;4.73;3.10;;;8.80;86.20;;;;;;4942108;28;20740;-32
2023/04/20 05:50:26;;;;;;;6.00;2.90;;;8.80;86.50;;;;;;4941175;28;20233;-32
2023/04/20 05:52:55;;;;;;;6.33;3.33;;;8.80;86.40;;;;;;4974221;28;20203;-32
2023/04/20 05:55:23;;;;;;;4.87;2.90;;;8.80;86.50;;;;;;4974760;28;20236;-32
2023/04/20 05:57:56;;;;;;;6.80;3.17;;;8.90;86.60;;;;;;4953694;28;20256;-33
2023/04/20 06:00:26;;;;;;;5.93;3.10;;;8.90;86.50;;;;;;4938726;29;20242;-32
2023/04/20 06:02:55;;;;;;;6.90;2.90;;;8.90;86.80;;;;;;4943032;28;20220;-32
2023/04/20 06:05:22;;;;;;;5.40;2.90;;;8.90;86.80;;;;;;4943415;28;20239;-32
2023/04/20 06:07:55;;;;;;;7.80;3.20;;;8.90;87.10;;;;;;4943817;28;20212;-32
2023/04/20 06:10:24;;;;;;;5.60;3.03;;;8.90;87.40;;;;;;4937675;28;20251;-32
2023/04/20 06:12:51;;;;;;;3.73;2.90;;;8.90;87.70;;;;;;4933593;28;20209;-32
2023/04/20 06:15:18;;;;;;;4.43;2.83;;;9.00;87.30;;;;;;4938015;28;20658;-32
2023/04/20 06:17:48;;;;;;;4.70;3.20;;;9.00;87.30;;;;;;4938302;28;20231;-32
2023/04/20 06:20:15;;;;;;;5.90;3.63;;;9.10;87.40;;;;;;4942163;28;20250;-37
2023/04/20 06:22:44;;;;;;;10.37;3.90;;;9.10;87.60;;;;;;4939253;28;20200;-37
2023/04/20 06:25:14;;;;;;;6.23;3.30;;;9.20;88.80;;;;;;4942026;28;20214;-37
2023/04/20 06:27:44;;;;;;;4.10;3.10;;;9.20;88.70;;;;;;4943401;28;20678;-37
2023/04/20 06:30:11;;;;;;;10.77;3.87;;;9.20;88.90;;;;;;4941977;28;20654;-37
2023/04/20 06:32:39;;;;;;;9.40;3.97;;;9.20;90.20;;;;;;4972544;28;20550;-37
2023/04/20 06:35:07;;;;;;;15.83;5.03;;;9.10;90.60;;;;;;4955912;28;20207;-37
2023/04/20 06:37:35;;;;;;;6.13;4.20;;;9.10;91.00;;;;;;4945932;28;20223;-37
2023/04/20 06:40:09;;;;;;;11.40;4.27;;;9.10;90.80;;;;;;4957541;28;20267;-37
2023/04/20 06:42:41;;;;;;;8.13;3.93;;;9.20;90.60;;;;;;4943148;28;20215;-37
2023/04/20 06:45:11;;;;;;;7.53;3.93;;;9.20;91.00;;;;;;4940552;28;21112;-37
2023/04/20 06:47:43;;;;;;;9.90;4.27;;;9.20;90.50;;;;;;4970874;28;20222;-37
2023/04/20 06:50:10;;;;;;;7.77;3.47;;;9.30;91.30;;;;;;4944086;28;20212;-37
2023/04/20 06:52:38;;;;;;;5.57;4.13;;;9.30;90.60;;;;;;4976261;28;20298;-37
2023/04/20 06:55:07;;;;;;;6.27;4.20;;;9.40;90.60;;;;;;4943907;28;20208;-37
2023/04/20 06:57:36;;;;;;;7.97;4.20;;;9.50;90.60;;;;;;4958174;28;20465;-37
2023/04/20 07:00:10;;;;;;;5.67;3.97;;;9.50;91.10;;;;;;4945956;28;20243;-34
2023/04/20 07:02:50;;;;;;;6.27;4.00;;;9.60;90.80;;;;;;4946879;28;20282;-33
2023/04/20 07:05:23;;;;;;;5.17;3.90;;;9.70;90.80;;;;;;4943740;29;20223;-33
2023/04/20 07:07:53;;;;;;;8.93;4.20;;;9.70;90.60;;;;;;4946914;29;20729;-33
2023/04/20 07:10:25;;;;;;;7.20;4.47;;;9.70;91.60;;;;;;4955188;28;20208;-32
2023/04/20 07:12:54;;;;;;;9.73;4.00;;;9.70;91.10;;;;;;4936540;29;20211;-33
2023/04/20 07:15:26;;;;;;;8.57;4.57;;;9.80;90.80;;;;;;4944620;28;20220;-33
2023/04/20 07:17:55;;;;;;;7.70;4.13;;;9.80;90.90;;;;;;4945803;28;20570;-32
2023/04/20 07:20:25;;;;;;;7.87;4.77;;;9.80;91.10;;;;;;4946563;28;20667;-33
2023/04/20 07:22:57;;;;;;;10.43;4.97;;;9.80;91.00;;;;;;4960523;28;20232;-32
2023/04/20 07:25:26;;;;;;;12.17;4.57;;;9.90;91.10;;;;;;4958378;28;20200;-32
2023/04/20 07:27:53;;;;;;;7.93;4.93;;;9.90;91.20;;;;;;4974117;28;20820;-33
2023/04/20 07:30:23;;;;;;;8.13;4.50;;;10.00;90.60;;;;;;4945547;28;20677;-33
2023/04/20 07:32:53;;;;;;;7.20;4.53;;;10.00;90.80;;;;;;4938937;28;20211;-33
2023/04/20 07:35:20;;;;;;;11.83;5.20;;;10.00;90.80;;;;;;4972460;28;20554;-33
2023/04/20 07:37:52;;;;;;;10.33;5.07;;;10.00;90.80;;;;;;4944214;28;20704;-37
2023/04/20 07:40:22;;;;;;;6.50;4.50;;;10.10;91.20;;;;;;4943944;28;20223;-37
2023/04/20 07:42:51;;;;;;;9.50;4.80;;;10.10;91.00;;;;;;4939167;29;20235;-37
2023/04/20 07:45:20;;;;;;;9.63;4.77;;;10.10;91.00;;;;;;4975026;28;20713;-37
2023/04/20 07:47:51;;;;;;;6.00;4.30;;;10.10;91.20;;;;;;4941567;29;20227;-38
2023/04/20 07:50:20;;;;;;;6.93;4.40;;;10.10;91.10;;;;;;4943737;28;20246;-37
2023/04/20 07:52:50;;;;;;;7.13;4.50;;;10.10;91.10;;;;;;4957888;28;20304;-38
2023/04/20 07:55:20;;;;;;;10.90;4.70;;;10.10;91.30;;;;;;4976756;28;20220;-37
2023/04/20 07:57:56;;;;;;;6.70;4.50;;;10.10;91.20;;;;;;4956010;28;20619;-38
2023/04/20 08:00:26;;;;;;;7.60;4.67;;;10.10;91.40;;;;;;4944326;29;20256;-38
2023/04/20 08:02:56;;;;;;;5.63;4.60;;;10.10;91.40;;;;;;4942581;28;20228;-37
2023/04/20 08:05:27;;;;;;;6.23;4.40;;;10.10;91.40;;;;;;4976027;28;20322;-37
2023/04/20 08:07:58;;;;;;;5.97;4.60;;;10.10;91.30;;;;;;4975613;28;20302;-37
2023/04/20 08:10:25;;;;;;;7.97;4.60;;;10.20;91.40;;;;;;4944797;28;20302;-37
2023/04/20 08:12:52;;;;;;;8.93;5.10;;;10.10;91.60;;;;;;4943990;28;20243;-38
2023/04/20 08:15:20;;;;;;;5.93;4.60;;;10.20;91.40;;;;;;4937467;28;20212;-37
2023/04/20 08:17:49;;;;;;;5.93;4.27;;;10.10;91.70;;;;;;4944752;28;20703;-37
2023/04/20 08:20:17;;;;;;;5.50;4.43;;;10.20;91.80;;;;;;4943546;28;20223;-38
2023/04/20 08:22:48;;;;;;;11.10;5.37;;;10.20;91.40;;;;;;4943866;28;20643;-37
2023/04/20 08:25:20;;;;;;;8.00;4.27;;;10.20;91.80;;;;;;4972214;28;20215;-38
2023/04/20 08:27:52;;;;;;;8.00;5.20;;;10.20;91.40;;;;;;4940540;28;20211;-37
2023/04/20 08:30:19;;;;;;;6.13;4.73;;;10.30;91.40;;;;;;4942705;28;20235;-37
2023/04/20 08:32:53;;;;;;;8.60;4.80;;;10.30;91.70;;;;;;4954931;28;20554;-38
2023/04/20 08:35:20;;;;;;;8.77;5.20;;;10.30;92.00;;;;;;4942699;28;20740;-37
2023/04/20 08:37:50;;;;;;;8.10;4.80;;;10.30;91.70;;;;;;4971551;28;20214;-38
2023/04/20 08:40:20;;;;;;;12.63;4.80;;;10.30;91.80;;;;;;4944868;28;20688;-37
2023/04/20 08:42:50;;;;;;;7.90;5.17;;;10.40;91.80;;;;;;4970764;28;20798;-37
2023/04/20 08:45:19;;;;;;;6.70;4.40;;;10.40;92.10;;;;;;4941566;28;20203;-38
2023/04/20 08:47:47;;;;;;;7.07;4.87;;;10.40;91.70;;;;;;4945406;28;20680;-38
2023/04/20 08:50:21;;;;;;;7.70;5.33;;;10.50;91.70;;;;;;4945460;28;20310;-38
2023/04/20 08:52:49;;;;;;;6.00;4.63;;;10.50;92.00;;;;;;4942886;28;20203;-38
2023/04/20 08:55:17;;;;;;;6.57;4.60;;;10.50;92.10;;;;;;4944273;28;20203;-37
2023/04/20 08:57:49;;;;;;;9.67;4.83;;;10.60;92.10;;;;;;4943092;28;20646;-37
2023/04/20 09:00:17;;;;;;;6.67;4.27;;;10.60;92.20;;;;;;4934251;28;20619;-38
2023/04/20 09:02:53;;;;;;;7.20;4.33;;;10.70;92.00;;;;;;4974957;28;20219;-37
2023/04/20 09:05:30;;;;;;;5.37;4.63;;;10.60;92.10;;;;;;4944827;29;20270;-37
2023/04/20 09:08:01;;;;;;;7.13;4.80;;;10.70;92.20;;;;;;4940345;28;20606;-38
2023/04/20 09:10:39;;;;;;;7.80;4.60;;;10.80;92.30;;;;;;4945044;29;20227;-38
2023/04/20 09:13:22;;;;;;;7.67;4.87;;;10.90;92.50;;;;;;4957586;28;20211;-38
2023/04/20 09:15:51;;;;;;;7.07;4.97;;;11.00;92.40;;;;;;4945222;28;20207;-37
2023/04/20 09:18:22;;;;;;;6.00;5.03;;;11.10;92.40;;;;;;4943226;28;20231;-38
2023/04/20 09:20:52;;;;;;;9.13;5.10;;;11.10;92.60;;;;;;4958360;28;20204;-37
2023/04/20 09:23:23;;;;;;;7.67;5.20;;;11.20;92.80;;;;;;4944238;28;20207;-38
2023/04/20 09:25:52;;;;;;;5.20;4.70;;;11.20;92.70;;;;;;4974537;28;20307;-38
2023/04/20 09:28:19;;;;;;;8.53;4.77;;;11.20;92.80;;;;;;4941764;28;20204;-38
2023/04/20 09:30:50;;;;;;;6.47;4.60;;;11.20;92.90;;;;;;4956891;28;20208;-38
2023/04/20 09:33:27;;;;;;;6.47;4.93;;;11.20;92.90;;;;;;4943369;28;20690;-38
2023/04/20 09:36:03;;;;;;;5.87;5.10;;;11.30;92.70;;;;;;4941449;28;20217;-38
2023/04/20 09:38:31;;;;;;;8.40;4.97;;;11.30;92.60;;;;;;4953191;28;20537;-38
2023/04/20 09:41:01;;;;;;;10.33;5.00;;;11.40;92.90;;;;;;4944712;28;20215;-38
2023/04/20 09:43:34;;;;;;;10.23;4.57;;;11.30;92.70;;;;;;4938995;28;20538;-38
2023/04/20 09:46:04;;;;;;;6.17;4.17;;;11.30;93.00;;;;;;4944781;28;21028;-38
2023/04/20 09:48:36;;;;;;;5.20;4.17;;;11.30;92.80;;;;;;4942463;28;20306;-38
2023/04/20 09:51:04;;;;;;;5.30;3.70;;;11.30;92.80;;;;;;4944541;28;20298;-38
2023/04/20 09:53:34;;;;;;;4.63;3.77;;;11.30;92.70;;;;;;4972191;28;20563;-38
2023/04/20 09:56:09;;;;;;;7.03;3.80;;;11.30;92.70;;;;;;4931658;28;20213;-38
2023/04/20 09:58:37;;;;;;;8.10;3.40;;;11.40;92.60;;;;;;4952216;28;20868;-38
2023/04/20 10:01:11;;;;;;;5.27;3.50;;;11.40;92.60;;;;;;4941987;29;20250;-37
2023/04/20 10:03:45;;;;;;;4.70;3.80;;;11.50;92.70;;;;;;4943111;28;20204;-38
2023/04/20 10:06:23;;;;;;;5.93;4.13;;;11.50;92.80;;;;;;4973844;28;20262;-38
2023/04/20 10:08:51;;;;;;;7.87;4.50;;;11.40;92.90;;;;;;4943980;28;20719;-38
2023/04/20 10:11:28;;;;;;;6.20;4.37;;;11.30;92.80;;;;;;4969793;28;20245;-38
2023/04/20 10:14:31;;;;;;;5.60;4.33;;;11.30;92.70;;;;;;4944995;28;20203;-38
2023/04/20 10:17:07;;;;;;;10.07;4.37;;;11.30;92.70;;;;;;4939037;28;20227;-38
2023/04/20 10:19:44;;;;;;;5.97;4.20;;;11.30;92.80;;;;;;4959581;28;20227;-38
2023/04/20 10:22:31;;;;;;;6.07;3.80;;;11.30;92.70;;;;;;4968512;28;20239;-38
2023/04/20 10:25:02;;;;;;;7.13;3.90;;;11.40;92.70;;;;;;4941730;28;20216;-38
2023/04/20 10:27:31;;;;;;;6.00;4.03;;;11.40;92.70;;;;;;4945113;28;20208;-38
2023/04/20 10:30:11;;;;;;;6.00;4.50;;;11.50;92.90;;;;;;4947897;28;20642;-38
2023/04/20 10:32:41;;;;;;;6.83;4.10;;;11.50;92.70;;;;;;4945404;28;20235;-37
2023/04/20 10:35:10;;;;;;;4.33;3.90;;;11.50;92.90;;;;;;4947420;28;20638;-37
2023/04/20 10:37:49;;;;;;;4.47;3.93;;;11.50;92.80;;;;;;4946273;28;20607;-37
2023/04/20 10:40:30;;;;;;;6.73;4.30;;;11.60;92.90;;;;;;4937848;28;20329;-37
2023/04/20 10:42:57;;;;;;;6.50;5.13;;;11.70;93.00;;;;;;4943915;28;20266;-37
2023/04/20 10:45:35;;;;;;;7.67;5.17;;;11.70;93.20;;;;;;4947959;28;20232;-37
2023/04/20 10:48:09;;;;;;;10.83;5.20;;;11.80;93.20;;;;;;4978505;28;20588;-37
2023/04/20 10:50:39;;;;;;;5.57;4.60;;;11.80;93.30;;;;;;4947975;28;20218;-37
2023/04/20 10:53:20;;;;;;;6.90;4.40;;;11.90;93.20;;;;;;4973722;28;20231;-37
2023/04/20 10:55:59;;;;;;;7.27;4.80;;;12.00;93.30;;;;;;4947015;28;20219;-37
2023/04/20 10:58:29;;;;;;;6.03;4.57;;;12.00;93.50;;;;;;4938159;28;20215;-37
2023/04/20 11:01:01;;;;;;;9.70;5.83;;;11.90;93.20;;;;;;4945041;28;20249;-37
2023/04/20 11:03:32;;;;;;;8.33;5.10;;;11.90;93.50;;;;;;4945233;28;20302;-37
2023/04/20 11:06:02;;;;;;;6.83;4.60;;;11.80;93.20;;;;;;4946720;28;20569;-38
2023/04/20 11:08:41;;;;;;;6.83;4.40;;;11.90;93.30;;;;;;4945531;29;20439;-38
2023/04/20 11:11:23;;;;;;;7.23;4.93;;;11.90;93.20;;;;;;4956137;28;20219;-38
2023/04/20 11:14:09;;;;;;;5.37;4.70;;;12.00;93.40;;;;;;4943061;28;20741;-37
2023/04/20 11:16:40;;;;;;;5.60;4.50;;;11.90;93.50;;;;;;4946130;28;20215;-38
2023/04/20 11:19:35;;;;;;;6.00;4.30;;;12.00;93.20;;;;;;4972761;28;20317;-37
2023/04/20 11:22:05;;;;;;;7.43;4.60;;;12.10;93.40;;;;;;4945684;28;20204;-37
2023/04/20 11:24:33;;;;;;;8.97;5.37;;;12.20;93.50;;;;;;4946675;28;20248;-37
2023/04/20 11:27:03;;;;;;;6.23;5.50;;;12.20;93.60;;;;;;4944086;28;20294;-37
2023/04/20 11:29:32;;;;;;;7.93;5.93;;;12.20;93.50;;;;;;4944027;29;20216;-37
2023/04/20 11:32:03;;;;;;;6.90;5.90;;;12.30;93.50;;;;;;4968994;28;20220;-37
2023/04/20 11:34:32;;;;;;;6.83;5.40;;;12.30;93.50;;;;;;4973529;28;20211;-37
2023/04/20 11:37:06;;;;;;;6.67;5.17;;;12.40;93.40;;;;;;4958650;28;20395;-38
2023/04/20 11:39:35;;;;;;;6.10;5.40;;;12.50;93.50;;;;;;4946675;29;20325;-38
2023/04/20 11:42:05;;;;;;;10.43;6.23;;;12.60;93.60;;;;;;4935912;28;20387;-38
2023/04/20 11:44:35;;;;;;;7.83;6.10;;;12.50;93.50;;;;;;4937890;28;21034;-38
2023/04/20 11:47:02;;;;;;;10.57;6.40;;;12.60;93.60;;;;;;4941976;28;20204;-38
2023/04/20 11:49:34;;;;;;;9.63;6.60;;;12.60;93.50;;;;;;4973085;28;20306;-38
2023/04/20 11:52:04;;;;;;;10.30;7.10;;;12.70;93.50;;;;;;4945365;28;20552;-37
2023/04/20 11:54:33;;;;;;;8.77;6.20;;;12.60;93.40;;;;;;4942217;28;20294;-38
2023/04/20 11:57:06;;;;;;;7.90;5.43;;;12.60;93.50;;;;;;4944461;28;20306;-37
2023/04/20 11:59:33;;;;;;;8.67;6.00;;;12.60;93.50;;;;;;4944279;28;20271;-37
2023/04/20 12:02:03;;;;;;;7.27;5.50;;;12.60;93.40;;;;;;4944508;29;20302;-37
2023/04/20 12:04:33;;;;;;;7.83;5.50;;;12.60;93.40;;;;;;4944498;28;20207;-37
2023/04/20 12:07:01;;;;;;;6.07;5.43;;;12.50;93.40;;;;;;4948225;28;20839;-37
2023/04/20 12:09:29;;;;;;;6.93;5.30;;;12.50;93.30;;;;;;4957607;28;20318;-37
2023/04/20 12:12:01;;;;;;;8.90;5.73;;;12.50;93.30;;;;;;4944666;28;20204;-37
2023/04/20 12:14:34;;;;;;;6.80;5.97;;;12.50;93.40;;;;;;4945327;28;20685;-37
2023/04/20 12:17:05;;;;;;;7.17;5.33;;;12.50;93.40;;;;;;4943792;28;20605;-37
2023/04/20 12:19:32;;;;;;;11.00;5.70;;;12.40;93.40;;;;;;4960730;28;20223;-37
2023/04/20 12:21:59;;;;;;;6.70;4.93;;;12.50;93.40;;;;;;4944833;28;20262;-37
2023/04/20 12:24:31;;;;;;;7.33;5.70;;;12.50;93.30;;;;;;4943476;28;20200;-37
2023/04/20 12:27:02;;;;;;;6.83;5.50;;;12.50;93.40;;;;;;4942448;28;20247;-37
2023/04/20 12:29:32;;;;;;;6.30;5.67;;;12.50;93.40;;;;;;4975738;28;20212;-37
2023/04/20 12:31:59;;;;;;;7.67;5.60;;;12.50;93.40;;;;;;4943995;28;20215;-38
2023/04/20 12:34:29;;;;;;;6.33;5.73;;;12.50;93.40;;;;;;4943949;28;20236;-37
2023/04/20 12:36:59;;;;;;;6.73;5.70;;;12.60;93.50;;;;;;4955184;28;20315;-37
2023/04/20 12:39:27;;;;;;;6.77;5.87;;;12.60;93.50;;;;;;4951196;28;20231;-37
2023/04/20 12:41:54;;;;;;;8.53;6.47;;;12.70;93.60;;;;;;4941979;28;20569;-37
2023/04/20 12:44:25;;;;;;;7.60;6.23;;;12.70;93.60;;;;;;4943433;28;20211;-37
2023/04/20 12:46:53;;;;;;;10.50;6.57;;;12.80;93.50;;;;;;4944467;28;20206;-37
2023/04/20 12:49:23;;;;;;;8.17;7.20;;;12.70;93.70;;;;;;4974707;28;20212;-37
2023/04/20 12:51:52;;;;;;;7.63;6.87;;;12.80;93.90;;;;;;4943859;28;20608;-37
2023/04/20 12:54:21;;;;;;;9.43;6.83;;;12.80;93.90;;;;;;4974646;28;20212;-37
2023/04/20 12:56:48;;;;;;;7.87;7.07;;;12.70;94.10;;;;;;4972823;28;20223;-37
2023/04/20 12:59:15;;;;;;;8.77;7.80;;;12.80;94.20;;;;;;4945480;28;20318;-37
2023/04/20 13:01:47;;;;;;;14.57;6.57;;;12.70;94.00;;;;;;4942683;28;20215;-37
2023/04/20 13:04:14;;;;;;;10.87;8.37;;;12.70;94.00;;;;;;4957552;28;20220;-37
2023/04/20 13:06:48;;;;;;;13.23;10.70;;;12.70;94.50;;;;;;4955535;28;20214;-38